Janet C — 2BZI7 — position and weather

sailwx.info

Track history (hours):
 
Tides and Currents Weather Stations Pressure Air Temp Water Temp Dewpoint Dewpoint Depression Visibility Wind Speed Wind Dir Waves Ship Positions

Janet C

Last reported at 2017-Sep-29 01:50 UTC. Time now 2017-Oct-17 02:16 UTC.
Position N 26°05' W 016°10'.
Warning: this ship's position is 18 days out of date.

Length 138 m; draft 6.2 m.

Type: Cargo ship. MMSI: 235070715.

Date/timePositionNaut miles runAvg speedWind from/ knotsBaromVisibWave heightAir tempDewpointWater temp
2017-Sep-29 01:50N 26°05' W 016°10'8613.1
2017-Sep-28 19:18N 27°22' W 015°29'1714.2
2017-Sep-28 18:05N 27°38' W 015°21'214.1
2017-Sep-28 17:57N 27°40' W 015°20'613.8
2017-Sep-28 17:30N 27°46' W 015°17'713.8
2017-Sep-28 17:01N 27°52' W 015°17'714.1
2017-Sep-28 16:30N 27°59' W 015°18'713.8
2017-Sep-28 16:00N 28°05' W 015°22'2 4.2
2017-Sep-28 15:26N 28°07' W 015°24'0 0.1
2017-Sep-28 14:56N 28°07' W 015°24'0 0.0
2017-Sep-28 14:29N 28°07' W 015°24'0 0.0
2017-Sep-28 13:56N 28°07' W 015°24'0 0.0
2017-Sep-28 13:29N 28°07' W 015°24'0 0.0
2017-Sep-28 12:56N 28°07' W 015°24'0 0.0
2017-Sep-28 12:29N 28°07' W 015°24'0 0.0
2017-Sep-28 11:59N 28°07' W 015°24'0 0.0
2017-Sep-28 11:29N 28°07' W 015°24'0 0.1
2017-Sep-28 10:59N 28°07' W 015°24'0 0.6
2017-Sep-28 10:30N 28°07' W 015°24'2 4.4
2017-Sep-28 10:00N 28°07' W 015°22'612.5
2017-Sep-28 09:30N 28°10' W 015°15'713.6
2017-Sep-28 09:01N 28°13' W 015°09'713.9
2017-Sep-28 08:30N 28°17' W 015°02'713.8
2017-Sep-28 08:01N 28°21' W 014°55'713.9
2017-Sep-28 07:30N 28°26' W 014°50'713.9
2017-Sep-28 07:00N 28°31' W 014°45'714.1
2017-Sep-28 06:30N 28°37' W 014°40'714.0
2017-Sep-28 06:00N 28°42' W 014°35'714.0
2017-Sep-28 05:30N 28°48' W 014°30'714.1
2017-Sep-28 05:00N 28°53' W 014°25'714.1
2017-Sep-28 04:30N 28°58' W 014°20'713.7
2017-Sep-28 04:00N 29°04' W 014°15'713.9
2017-Sep-28 03:31N 29°09' W 014°09'713.9
2017-Sep-28 03:01N 29°14' W 014°04'713.9
2017-Sep-28 02:31N 29°19' W 013°59'713.5
2017-Sep-28 02:01N 29°24' W 013°54'713.8
2017-Sep-28 01:31N 29°29' W 013°48'713.8
2017-Sep-28 01:00N 29°34' W 013°43'713.9
2017-Sep-28 00:31N 29°39' W 013°37'713.9
2017-Sep-28 00:00N 29°45' W 013°32'713.9
2017-Sep-27 23:30N 29°50' W 013°27'713.9
2017-Sep-27 23:00N 29°55' W 013°21'714.1
2017-Sep-27 22:31N 30°00' W 013°16'1614.0
2017-Sep-27 21:23N 30°12' W 013°04'614.5
2017-Sep-27 20:56N 30°16' W 012°58'614.5
2017-Sep-27 20:30N 30°21' W 012°53'714.4
2017-Sep-27 20:00N 30°26' W 012°48'714.3
2017-Sep-27 19:30N 30°32' W 012°42'2714.3
2017-Sep-27 17:38N 30°52' W 012°23'214.3
2017-Sep-27 17:30N 30°54' W 012°21'4914.1
2017-Sep-27 14:02N 31°30' W 011°43'213.8
2017-Sep-27 13:54N 31°32' W 011°41'24013.6
2017-Sep-26 20:12N 34°16' W 008°13'513.7
2017-Sep-26 19:50N 34°20' W 008°08'514.0
2017-Sep-26 19:30N 34°23' W 008°04'713.5
2017-Sep-26 19:00N 34°28' W 007°58'713.5
2017-Sep-26 18:29N 34°33' W 007°52'713.7
2017-Sep-26 18:00N 34°38' W 007°47'3813.7
2017-Sep-26 15:13N 35°05' W 007°14'313.4
2017-Sep-26 15:00N 35°07' W 007°12'713.5
2017-Sep-26 14:30N 35°12' W 007°06'1913.4
2017-Sep-26 13:06N 35°26' W 006°50'113.6
2017-Sep-26 13:00N 35°26' W 006°49'6811.5
2017-Sep-26 07:07N 35°58' W 005°35'2 9.8
2017-Sep-26 06:53N 35°58' W 005°33'411.0
2017-Sep-26 06:30N 35°60' W 005°28'510.7
2017-Sep-26 06:00N 36°01' W 005°21'611.3
2017-Sep-26 05:30N 36°04' W 005°15'3 0.1
2017-Sep-24 07:15N 36°03' W 005°11'313.6
2017-Sep-24 07:00N 36°01' W 005°15'713.8
2017-Sep-24 06:31N 35°58' W 005°23'1312.5
2017-Sep-24 05:27N 35°55' W 005°38'611.7
2017-Sep-24 04:58N 35°55' W 005°45'610.9
2017-Sep-24 04:24N 35°55' W 005°53'  
Track history (hours):
 
Tides and Currents Weather Stations Pressure Air Temp Water Temp Dewpoint Dewpoint Depression Visibility Wind Speed Wind Dir Waves Ship Positions

Janet C

Last reported at 2017-Sep-29 01:50 UTC. Time now 2017-Oct-17 02:16 UTC.
Position N 26°05' W 016°10'.
Warning: this ship's position is 18 days out of date.

Length 138 m; draft 6.2 m.

Type: Cargo ship. MMSI: 235070715.

Date/timePositionNaut miles runAvg speedWind from/ knotsBaromVisibWave heightAir tempDewpointWater temp
2017-Sep-29 01:50N 26°05' W 016°10'8613.1
2017-Sep-28 19:18N 27°22' W 015°29'1714.2
2017-Sep-28 18:05N 27°38' W 015°21'214.1
2017-Sep-28 17:57N 27°40' W 015°20'613.8
2017-Sep-28 17:30N 27°46' W 015°17'713.8
2017-Sep-28 17:01N 27°52' W 015°17'714.1
2017-Sep-28 16:30N 27°59' W 015°18'713.8
2017-Sep-28 16:00N 28°05' W 015°22'2 4.2
2017-Sep-28 15:26N 28°07' W 015°24'0 0.1
2017-Sep-28 14:56N 28°07' W 015°24'0 0.0
2017-Sep-28 14:29N 28°07' W 015°24'0 0.0
2017-Sep-28 13:56N 28°07' W 015°24'0 0.0
2017-Sep-28 13:29N 28°07' W 015°24'0 0.0
2017-Sep-28 12:56N 28°07' W 015°24'0 0.0
2017-Sep-28 12:29N 28°07' W 015°24'0 0.0
2017-Sep-28 11:59N 28°07' W 015°24'0 0.0
2017-Sep-28 11:29N 28°07' W 015°24'0 0.1
2017-Sep-28 10:59N 28°07' W 015°24'0 0.6
2017-Sep-28 10:30N 28°07' W 015°24'2 4.4
2017-Sep-28 10:00N 28°07' W 015°22'612.5
2017-Sep-28 09:30N 28°10' W 015°15'713.6
2017-Sep-28 09:01N 28°13' W 015°09'713.9
2017-Sep-28 08:30N 28°17' W 015°02'713.8
2017-Sep-28 08:01N 28°21' W 014°55'713.9
2017-Sep-28 07:30N 28°26' W 014°50'713.9
2017-Sep-28 07:00N 28°31' W 014°45'714.1
2017-Sep-28 06:30N 28°37' W 014°40'714.0
2017-Sep-28 06:00N 28°42' W 014°35'714.0
2017-Sep-28 05:30N 28°48' W 014°30'714.1
2017-Sep-28 05:00N 28°53' W 014°25'714.1
2017-Sep-28 04:30N 28°58' W 014°20'713.7
2017-Sep-28 04:00N 29°04' W 014°15'713.9
2017-Sep-28 03:31N 29°09' W 014°09'713.9
2017-Sep-28 03:01N 29°14' W 014°04'713.9
2017-Sep-28 02:31N 29°19' W 013°59'713.5
2017-Sep-28 02:01N 29°24' W 013°54'713.8
2017-Sep-28 01:31N 29°29' W 013°48'713.8
2017-Sep-28 01:00N 29°34' W 013°43'713.9
2017-Sep-28 00:31N 29°39' W 013°37'713.9
2017-Sep-28 00:00N 29°45' W 013°32'713.9
2017-Sep-27 23:30N 29°50' W 013°27'713.9
2017-Sep-27 23:00N 29°55' W 013°21'714.1
2017-Sep-27 22:31N 30°00' W 013°16'1614.0
2017-Sep-27 21:23N 30°12' W 013°04'614.5
2017-Sep-27 20:56N 30°16' W 012°58'614.5
2017-Sep-27 20:30N 30°21' W 012°53'714.4
2017-Sep-27 20:00N 30°26' W 012°48'714.3
2017-Sep-27 19:30N 30°32' W 012°42'2714.3
2017-Sep-27 17:38N 30°52' W 012°23'214.3
2017-Sep-27 17:30N 30°54' W 012°21'4914.1
2017-Sep-27 14:02N 31°30' W 011°43'213.8
2017-Sep-27 13:54N 31°32' W 011°41'24013.6
2017-Sep-26 20:12N 34°16' W 008°13'513.7
2017-Sep-26 19:50N 34°20' W 008°08'514.0
2017-Sep-26 19:30N 34°23' W 008°04'713.5
2017-Sep-26 19:00N 34°28' W 007°58'713.5
2017-Sep-26 18:29N 34°33' W 007°52'713.7
2017-Sep-26 18:00N 34°38' W 007°47'3813.7
2017-Sep-26 15:13N 35°05' W 007°14'313.4
2017-Sep-26 15:00N 35°07' W 007°12'713.5
2017-Sep-26 14:30N 35°12' W 007°06'1913.4
2017-Sep-26 13:06N 35°26' W 006°50'113.6
2017-Sep-26 13:00N 35°26' W 006°49'6811.5
2017-Sep-26 07:07N 35°58' W 005°35'2 9.8
2017-Sep-26 06:53N 35°58' W 005°33'411.0
2017-Sep-26 06:30N 35°60' W 005°28'510.7
2017-Sep-26 06:00N 36°01' W 005°21'611.3
2017-Sep-26 05:30N 36°04' W 005°15'3 0.1
2017-Sep-24 07:15N 36°03' W 005°11'313.6
2017-Sep-24 07:00N 36°01' W 005°15'713.8
2017-Sep-24 06:31N 35°58' W 005°23'1312.5
2017-Sep-24 05:27N 35°55' W 005°38'611.7
2017-Sep-24 04:58N 35°55' W 005°45'610.9
2017-Sep-24 04:24N 35°55' W 005°53'  

Dump ship's entire track history